sensor_id;sensor_type;location;lat;lon;timestamp;P1;durP1;ratioP1;P2;durP2;ratioP2
3959;SDS011;1994;48.640;8.894;2023-05-17T00:02:08;1.10;;;1.10;;
3959;SDS011;1994;48.640;8.894;2023-05-17T00:04:34;2.60;;;2.17;;
3959;SDS011;1994;48.640;8.894;2023-05-17T00:07:00;8.00;;;2.70;;
3959;SDS011;1994;48.640;8.894;2023-05-17T00:09:26;2.93;;;2.00;;
3959;SDS011;1994;48.640;8.894;2023-05-17T00:11:52;2.43;;;1.60;;
3959;SDS011;1994;48.640;8.894;2023-05-17T00:14:17;1.03;;;1.00;;
3959;SDS011;1994;48.640;8.894;2023-05-17T00:16:43;1.43;;;1.10;;
3959;SDS011;1994;48.640;8.894;2023-05-17T00:19:09;1.93;;;1.83;;
3959;SDS011;1994;48.640;8.894;2023-05-17T00:21:35;2.27;;;1.60;;
3959;SDS011;1994;48.640;8.894;2023-05-17T00:24:00;2.57;;;1.37;;
3959;SDS011;1994;48.640;8.894;2023-05-17T00:26:26;2.03;;;1.10;;
3959;SDS011;1994;48.640;8.894;2023-05-17T00:28:52;1.60;;;1.00;;
3959;SDS011;1994;48.640;8.894;2023-05-17T00:31:17;1.37;;;1.27;;
3959;SDS011;1994;48.640;8.894;2023-05-17T00:33:43;2.40;;;1.10;;
3959;SDS011;1994;48.640;8.894;2023-05-17T00:36:10;1.00;;;1.00;;
3959;SDS011;1994;48.640;8.894;2023-05-17T00:38:36;1.00;;;1.00;;
3959;SDS011;1994;48.640;8.894;2023-05-17T00:41:01;0.77;;;0.77;;
3959;SDS011;1994;48.640;8.894;2023-05-17T00:43:27;1.30;;;1.10;;
3959;SDS011;1994;48.640;8.894;2023-05-17T00:45:53;1.63;;;1.07;;
3959;SDS011;1994;48.640;8.894;2023-05-17T00:48:18;0.93;;;0.93;;
3959;SDS011;1994;48.640;8.894;2023-05-17T00:50:50;2.50;;;1.20;;
3959;SDS011;1994;48.640;8.894;2023-05-17T00:53:17;5.57;;;1.40;;
3959;SDS011;1994;48.640;8.894;2023-05-17T00:55:43;4.27;;;2.07;;
3959;SDS011;1994;48.640;8.894;2023-05-17T00:58:13;1.30;;;1.20;;
3959;SDS011;1994;48.640;8.894;2023-05-17T01:00:39;2.20;;;1.37;;
3959;SDS011;1994;48.640;8.894;2023-05-17T01:03:06;1.93;;;1.13;;
3959;SDS011;1994;48.640;8.894;2023-05-17T01:05:31;1.27;;;1.17;;
3959;SDS011;1994;48.640;8.894;2023-05-17T01:07:57;7.30;;;1.07;;
3959;SDS011;1994;48.640;8.894;2023-05-17T01:10:23;0.90;;;0.90;;
3959;SDS011;1994;48.640;8.894;2023-05-17T01:13:08;1.13;;;0.83;;
3959;SDS011;1994;48.640;8.894;2023-05-17T01:15:38;1.30;;;1.20;;
3959;SDS011;1994;48.640;8.894;2023-05-17T01:18:19;1.33;;;1.23;;
3959;SDS011;1994;48.640;8.894;2023-05-17T01:20:52;1.23;;;1.13;;
3959;SDS011;1994;48.640;8.894;2023-05-17T01:26:17;1.30;;;1.20;;
3959;SDS011;1994;48.640;8.894;2023-05-17T01:29:03;8.30;;;1.20;;
3959;SDS011;1994;48.640;8.894;2023-05-17T01:31:32;1.03;;;1.03;;
3959;SDS011;1994;48.640;8.894;2023-05-17T01:33:59;1.30;;;1.20;;
3959;SDS011;1994;48.640;8.894;2023-05-17T01:36:25;2.73;;;1.10;;
3959;SDS011;1994;48.640;8.894;2023-05-17T01:38:51;2.03;;;1.83;;
3959;SDS011;1994;48.640;8.894;2023-05-17T01:41:19;1.47;;;1.20;;
3959;SDS011;1994;48.640;8.894;2023-05-17T01:44:11;2.13;;;1.13;;
3959;SDS011;1994;48.640;8.894;2023-05-17T01:47:01;3.93;;;1.60;;
3959;SDS011;1994;48.640;8.894;2023-05-17T01:49:53;1.20;;;1.00;;
3959;SDS011;1994;48.640;8.894;2023-05-17T01:52:28;1.33;;;1.23;;
3959;SDS011;1994;48.640;8.894;2023-05-17T01:57:35;2.30;;;1.00;;
3959;SDS011;1994;48.640;8.894;2023-05-17T02:00:04;1.57;;;1.47;;
3959;SDS011;1994;48.640;8.894;2023-05-17T02:02:33;1.80;;;1.10;;
3959;SDS011;1994;48.640;8.894;2023-05-17T02:04:59;1.10;;;1.00;;
3959;SDS011;1994;48.640;8.894;2023-05-17T02:07:25;2.00;;;1.00;;
3959;SDS011;1994;48.640;8.894;2023-05-17T02:09:51;2.10;;;1.37;;
3959;SDS011;1994;48.640;8.894;2023-05-17T02:12:17;1.23;;;1.10;;
3959;SDS011;1994;48.640;8.894;2023-05-17T02:14:42;2.00;;;1.40;;
3959;SDS011;1994;48.640;8.894;2023-05-17T02:17:08;1.93;;;1.33;;
3959;SDS011;1994;48.640;8.894;2023-05-17T02:19:34;1.37;;;1.27;;
3959;SDS011;1994;48.640;8.894;2023-05-17T02:21:59;1.13;;;1.13;;
3959;SDS011;1994;48.640;8.894;2023-05-17T02:24:25;1.90;;;1.37;;
3959;SDS011;1994;48.640;8.894;2023-05-17T02:26:51;11.10;;;1.50;;
3959;SDS011;1994;48.640;8.894;2023-05-17T02:29:17;1.40;;;1.30;;
3959;SDS011;1994;48.640;8.894;2023-05-17T02:31:42;1.13;;;1.03;;
3959;SDS011;1994;48.640;8.894;2023-05-17T02:34:08;2.20;;;1.43;;
3959;SDS011;1994;48.640;8.894;2023-05-17T02:36:34;2.60;;;1.30;;
3959;SDS011;1994;48.640;8.894;2023-05-17T02:38:59;1.00;;;1.00;;
3959;SDS011;1994;48.640;8.894;2023-05-17T02:41:25;1.40;;;1.30;;
3959;SDS011;1994;48.640;8.894;2023-05-17T02:43:51;2.40;;;1.13;;
3959;SDS011;1994;48.640;8.894;2023-05-17T02:46:16;3.00;;;1.50;;
3959;SDS011;1994;48.640;8.894;2023-05-17T02:48:42;1.10;;;1.10;;
3959;SDS011;1994;48.640;8.894;2023-05-17T02:51:08;1.47;;;1.37;;
3959;SDS011;1994;48.640;8.894;2023-05-17T02:53:34;1.20;;;1.20;;
3959;SDS011;1994;48.640;8.894;2023-05-17T02:55:59;6.20;;;1.50;;
3959;SDS011;1994;48.640;8.894;2023-05-17T02:58:25;9.70;;;1.27;;
3959;SDS011;1994;48.640;8.894;2023-05-17T03:00:51;1.50;;;1.40;;
3959;SDS011;1994;48.640;8.894;2023-05-17T03:03:17;2.60;;;1.40;;
3959;SDS011;1994;48.640;8.894;2023-05-17T03:05:43;3.47;;;1.27;;
3959;SDS011;1994;48.640;8.894;2023-05-17T03:08:08;1.90;;;1.20;;
3959;SDS011;1994;48.640;8.894;2023-05-17T03:10:34;1.37;;;1.27;;
3959;SDS011;1994;48.640;8.894;2023-05-17T03:13:00;1.70;;;1.60;;
3959;SDS011;1994;48.640;8.894;2023-05-17T03:15:25;1.93;;;1.60;;
3959;SDS011;1994;48.640;8.894;2023-05-17T03:17:53;2.20;;;2.00;;
3959;SDS011;1994;48.640;8.894;2023-05-17T03:20:20;2.60;;;1.83;;
3959;SDS011;1994;48.640;8.894;2023-05-17T03:22:47;8.63;;;1.80;;
3959;SDS011;1994;48.640;8.894;2023-05-17T03:25:12;1.40;;;1.30;;
3959;SDS011;1994;48.640;8.894;2023-05-17T03:27:38;1.40;;;1.30;;
3959;SDS011;1994;48.640;8.894;2023-05-17T03:30:04;1.93;;;1.60;;
3959;SDS011;1994;48.640;8.894;2023-05-17T03:32:31;1.40;;;1.30;;
3959;SDS011;1994;48.640;8.894;2023-05-17T03:34:56;1.93;;;1.80;;
3959;SDS011;1994;48.640;8.894;2023-05-17T03:37:22;1.50;;;1.40;;
3959;SDS011;1994;48.640;8.894;2023-05-17T03:39:48;1.70;;;1.60;;
3959;SDS011;1994;48.640;8.894;2023-05-17T03:42:14;2.20;;;1.40;;
3959;SDS011;1994;48.640;8.894;2023-05-17T03:44:39;1.57;;;1.47;;
3959;SDS011;1994;48.640;8.894;2023-05-17T03:47:05;2.23;;;1.40;;
3959;SDS011;1994;48.640;8.894;2023-05-17T03:49:31;3.57;;;1.80;;
3959;SDS011;1994;48.640;8.894;2023-05-17T03:51:57;5.07;;;1.40;;
3959;SDS011;1994;48.640;8.894;2023-05-17T03:54:23;1.60;;;1.50;;
3959;SDS011;1994;48.640;8.894;2023-05-17T03:56:49;5.03;;;2.30;;
3959;SDS011;1994;48.640;8.894;2023-05-17T03:59:15;4.83;;;2.27;;
3959;SDS011;1994;48.640;8.894;2023-05-17T04:01:41;11.83;;;2.40;;
3959;SDS011;1994;48.640;8.894;2023-05-17T04:04:07;5.97;;;2.50;;
3959;SDS011;1994;48.640;8.894;2023-05-17T04:06:34;3.73;;;1.90;;
3959;SDS011;1994;48.640;8.894;2023-05-17T04:08:59;2.13;;;1.77;;
3959;SDS011;1994;48.640;8.894;2023-05-17T04:11:26;5.17;;;1.83;;
3959;SDS011;1994;48.640;8.894;2023-05-17T04:13:52;2.60;;;1.80;;
3959;SDS011;1994;48.640;8.894;2023-05-17T04:16:19;12.87;;;6.10;;
3959;SDS011;1994;48.640;8.894;2023-05-17T04:18:45;7.63;;;4.60;;
3959;SDS011;1994;48.640;8.894;2023-05-17T04:21:11;6.37;;;5.13;;
3959;SDS011;1994;48.640;8.894;2023-05-17T04:23:37;14.60;;;8.60;;
3959;SDS011;1994;48.640;8.894;2023-05-17T04:26:03;4.40;;;3.80;;
3959;SDS011;1994;48.640;8.894;2023-05-17T04:28:30;2.40;;;2.20;;
3959;SDS011;1994;48.640;8.894;2023-05-17T04:30:56;1.50;;;1.40;;
3959;SDS011;1994;48.640;8.894;2023-05-17T04:33:22;1.40;;;1.30;;
3959;SDS011;1994;48.640;8.894;2023-05-17T04:35:49;2.10;;;1.53;;
3959;SDS011;1994;48.640;8.894;2023-05-17T04:38:18;5.33;;;2.13;;
3959;SDS011;1994;48.640;8.894;2023-05-17T04:40:44;3.93;;;2.00;;
3959;SDS011;1994;48.640;8.894;2023-05-17T04:43:09;1.67;;;1.57;;
3959;SDS011;1994;48.640;8.894;2023-05-17T04:45:35;2.03;;;1.83;;
3959;SDS011;1994;48.640;8.894;2023-05-17T04:48:01;9.73;;;2.43;;
3959;SDS011;1994;48.640;8.894;2023-05-17T04:50:28;2.63;;;2.43;;
3959;SDS011;1994;48.640;8.894;2023-05-17T04:52:53;3.37;;;2.43;;
3959;SDS011;1994;48.640;8.894;2023-05-17T04:55:19;5.30;;;3.33;;
3959;SDS011;1994;48.640;8.894;2023-05-17T04:57:45;6.50;;;4.20;;
3959;SDS011;1994;48.640;8.894;2023-05-17T05:00:11;4.90;;;3.13;;
3959;SDS011;1994;48.640;8.894;2023-05-17T05:02:40;4.60;;;2.20;;
3959;SDS011;1994;48.640;8.894;2023-05-17T05:05:06;2.50;;;1.63;;
3959;SDS011;1994;48.640;8.894;2023-05-17T05:07:36;4.57;;;2.33;;
3959;SDS011;1994;48.640;8.894;2023-05-17T05:10:03;4.00;;;2.23;;
3959;SDS011;1994;48.640;8.894;2023-05-17T05:12:30;3.17;;;1.90;;
3959;SDS011;1994;48.640;8.894;2023-05-17T05:14:56;1.90;;;1.63;;
3959;SDS011;1994;48.640;8.894;2023-05-17T05:17:22;4.20;;;2.50;;
3959;SDS011;1994;48.640;8.894;2023-05-17T05:19:47;2.60;;;1.50;;
3959;SDS011;1994;48.640;8.894;2023-05-17T05:22:13;2.03;;;1.93;;
3959;SDS011;1994;48.640;8.894;2023-05-17T05:24:39;1.70;;;1.50;;
3959;SDS011;1994;48.640;8.894;2023-05-17T05:27:05;2.10;;;1.90;;
3959;SDS011;1994;48.640;8.894;2023-05-17T05:29:31;4.20;;;1.67;;
3959;SDS011;1994;48.640;8.894;2023-05-17T05:31:56;2.80;;;1.80;;
3959;SDS011;1994;48.640;8.894;2023-05-17T05:34:22;2.00;;;1.90;;
3959;SDS011;1994;48.640;8.894;2023-05-17T05:36:48;2.63;;;1.90;;
3959;SDS011;1994;48.640;8.894;2023-05-17T05:39:14;2.23;;;2.10;;
3959;SDS011;1994;48.640;8.894;2023-05-17T05:41:40;2.17;;;1.97;;
3959;SDS011;1994;48.640;8.894;2023-05-17T05:44:05;2.00;;;1.80;;
3959;SDS011;1994;48.640;8.894;2023-05-17T05:46:31;9.70;;;2.50;;
3959;SDS011;1994;48.640;8.894;2023-05-17T05:48:57;3.67;;;2.03;;
3959;SDS011;1994;48.640;8.894;2023-05-17T05:51:22;5.70;;;2.30;;
3959;SDS011;1994;48.640;8.894;2023-05-17T05:53:48;2.07;;;1.97;;
3959;SDS011;1994;48.640;8.894;2023-05-17T05:56:14;4.23;;;3.00;;
3959;SDS011;1994;48.640;8.894;2023-05-17T05:58:40;3.30;;;1.70;;
3959;SDS011;1994;48.640;8.894;2023-05-17T06:01:05;1.63;;;1.53;;
3959;SDS011;1994;48.640;8.894;2023-05-17T06:03:32;4.40;;;2.57;;
3959;SDS011;1994;48.640;8.894;2023-05-17T06:05:57;7.97;;;2.37;;
3959;SDS011;1994;48.640;8.894;2023-05-17T06:08:23;8.90;;;4.10;;
3959;SDS011;1994;48.640;8.894;2023-05-17T06:10:49;7.23;;;3.53;;
3959;SDS011;1994;48.640;8.894;2023-05-17T06:13:14;6.07;;;3.73;;
3959;SDS011;1994;48.640;8.894;2023-05-17T06:15:40;5.33;;;2.40;;
3959;SDS011;1994;48.640;8.894;2023-05-17T06:18:06;3.93;;;1.53;;
3959;SDS011;1994;48.640;8.894;2023-05-17T06:20:32;4.47;;;1.90;;
3959;SDS011;1994;48.640;8.894;2023-05-17T06:22:57;11.40;;;4.70;;
3959;SDS011;1994;48.640;8.894;2023-05-17T06:25:23;5.30;;;3.13;;
3959;SDS011;1994;48.640;8.894;2023-05-17T06:27:49;2.57;;;2.40;;
3959;SDS011;1994;48.640;8.894;2023-05-17T06:30:14;7.10;;;3.40;;
3959;SDS011;1994;48.640;8.894;2023-05-17T06:32:40;2.50;;;1.90;;
3959;SDS011;1994;48.640;8.894;2023-05-17T06:35:06;4.63;;;1.93;;
3959;SDS011;1994;48.640;8.894;2023-05-17T06:37:32;7.43;;;3.47;;
3959;SDS011;1994;48.640;8.894;2023-05-17T06:40:02;2.00;;;1.90;;
3959;SDS011;1994;48.640;8.894;2023-05-17T06:42:34;1.57;;;1.47;;
3959;SDS011;1994;48.640;8.894;2023-05-17T06:45:00;1.87;;;1.40;;
3959;SDS011;1994;48.640;8.894;2023-05-17T06:47:25;2.67;;;1.90;;
3959;SDS011;1994;48.640;8.894;2023-05-17T06:49:51;4.00;;;2.07;;
3959;SDS011;1994;48.640;8.894;2023-05-17T06:52:17;2.50;;;1.77;;
3959;SDS011;1994;48.640;8.894;2023-05-17T06:54:43;2.93;;;1.80;;
3959;SDS011;1994;48.640;8.894;2023-05-17T06:57:08;3.30;;;1.97;;
3959;SDS011;1994;48.640;8.894;2023-05-17T06:59:36;3.63;;;1.70;;
3959;SDS011;1994;48.640;8.894;2023-05-17T07:02:02;4.10;;;2.50;;
3959;SDS011;1994;48.640;8.894;2023-05-17T07:04:28;1.67;;;1.57;;
3959;SDS011;1994;48.640;8.894;2023-05-17T07:06:55;2.83;;;2.20;;
3959;SDS011;1994;48.640;8.894;2023-05-17T07:09:21;2.07;;;1.87;;
3959;SDS011;1994;48.640;8.894;2023-05-17T07:11:47;6.10;;;2.87;;
3959;SDS011;1994;48.640;8.894;2023-05-17T07:14:13;2.13;;;1.67;;
3959;SDS011;1994;48.640;8.894;2023-05-17T07:16:38;5.80;;;2.23;;
3959;SDS011;1994;48.640;8.894;2023-05-17T07:19:04;2.90;;;2.13;;
3959;SDS011;1994;48.640;8.894;2023-05-17T07:21:30;2.73;;;2.53;;
3959;SDS011;1994;48.640;8.894;2023-05-17T07:23:56;1.80;;;1.70;;
3959;SDS011;1994;48.640;8.894;2023-05-17T07:26:22;2.40;;;2.10;;
3959;SDS011;1994;48.640;8.894;2023-05-17T07:28:48;2.80;;;1.90;;
3959;SDS011;1994;48.640;8.894;2023-05-17T07:31:14;2.80;;;2.23;;
3959;SDS011;1994;48.640;8.894;2023-05-17T07:33:40;2.50;;;2.17;;
3959;SDS011;1994;48.640;8.894;2023-05-17T07:36:06;2.20;;;2.03;;
3959;SDS011;1994;48.640;8.894;2023-05-17T07:38:32;3.63;;;2.00;;
3959;SDS011;1994;48.640;8.894;2023-05-17T07:41:01;9.07;;;3.70;;
3959;SDS011;1994;48.640;8.894;2023-05-17T07:43:28;4.97;;;2.80;;
3959;SDS011;1994;48.640;8.894;2023-05-17T07:45:54;2.83;;;2.63;;
3959;SDS011;1994;48.640;8.894;2023-05-17T07:48:20;4.77;;;3.20;;
3959;SDS011;1994;48.640;8.894;2023-05-17T07:50:45;3.70;;;2.60;;
3959;SDS011;1994;48.640;8.894;2023-05-17T07:53:12;6.33;;;2.47;;
3959;SDS011;1994;48.640;8.894;2023-05-17T07:55:38;3.53;;;2.37;;
3959;SDS011;1994;48.640;8.894;2023-05-17T07:58:04;4.00;;;2.73;;
3959;SDS011;1994;48.640;8.894;2023-05-17T08:00:29;5.43;;;3.03;;
3959;SDS011;1994;48.640;8.894;2023-05-17T08:02:55;6.97;;;3.33;;
3959;SDS011;1994;48.640;8.894;2023-05-17T08:05:21;3.00;;;2.03;;
3959;SDS011;1994;48.640;8.894;2023-05-17T08:07:47;5.00;;;2.20;;
3959;SDS011;1994;48.640;8.894;2023-05-17T08:10:13;3.50;;;2.60;;
3959;SDS011;1994;48.640;8.894;2023-05-17T08:12:39;3.13;;;2.83;;
3959;SDS011;1994;48.640;8.894;2023-05-17T08:15:05;8.73;;;2.73;;
3959;SDS011;1994;48.640;8.894;2023-05-17T08:17:31;3.70;;;3.13;;
3959;SDS011;1994;48.640;8.894;2023-05-17T08:19:57;3.10;;;2.70;;
3959;SDS011;1994;48.640;8.894;2023-05-17T08:22:23;5.00;;;2.90;;
3959;SDS011;1994;48.640;8.894;2023-05-17T08:24:48;10.00;;;3.30;;
3959;SDS011;1994;48.640;8.894;2023-05-17T08:27:15;4.47;;;2.87;;
3959;SDS011;1994;48.640;8.894;2023-05-17T08:29:41;6.13;;;3.87;;
3959;SDS011;1994;48.640;8.894;2023-05-17T08:32:06;2.30;;;2.10;;
3959;SDS011;1994;48.640;8.894;2023-05-17T08:34:32;3.00;;;2.20;;
3959;SDS011;1994;48.640;8.894;2023-05-17T08:36:58;3.10;;;2.80;;
3959;SDS011;1994;48.640;8.894;2023-05-17T08:39:23;4.37;;;2.53;;
3959;SDS011;1994;48.640;8.894;2023-05-17T08:41:49;3.07;;;2.57;;
3959;SDS011;1994;48.640;8.894;2023-05-17T08:44:15;3.23;;;2.27;;
3959;SDS011;1994;48.640;8.894;2023-05-17T08:46:41;4.40;;;2.73;;
3959;SDS011;1994;48.640;8.894;2023-05-17T08:49:08;1.70;;;1.60;;
3959;SDS011;1994;48.640;8.894;2023-05-17T08:51:36;2.70;;;2.10;;
3959;SDS011;1994;48.640;8.894;2023-05-17T08:54:03;6.73;;;2.33;;
3959;SDS011;1994;48.640;8.894;2023-05-17T08:56:32;2.73;;;2.40;;
3959;SDS011;1994;48.640;8.894;2023-05-17T08:59:03;4.00;;;1.83;;
3959;SDS011;1994;48.640;8.894;2023-05-17T09:01:32;3.67;;;2.40;;
3959;SDS011;1994;48.640;8.894;2023-05-17T09:03:59;2.40;;;1.70;;
3959;SDS011;1994;48.640;8.894;2023-05-17T09:06:24;5.17;;;2.60;;
3959;SDS011;1994;48.640;8.894;2023-05-17T09:08:51;2.10;;;1.90;;
3959;SDS011;1994;48.640;8.894;2023-05-17T09:11:25;2.73;;;2.53;;
3959;SDS011;1994;48.640;8.894;2023-05-17T09:13:53;2.70;;;2.50;;
3959;SDS011;1994;48.640;8.894;2023-05-17T09:16:23;3.40;;;3.20;;
3959;SDS011;1994;48.640;8.894;2023-05-17T09:18:52;9.50;;;2.23;;
3959;SDS011;1994;48.640;8.894;2023-05-17T09:21:19;7.60;;;2.80;;
3959;SDS011;1994;48.640;8.894;2023-05-17T09:23:47;2.47;;;2.17;;
3959;SDS011;1994;48.640;8.894;2023-05-17T09:26:12;2.40;;;2.20;;
3959;SDS011;1994;48.640;8.894;2023-05-17T09:28:38;5.20;;;2.23;;
3959;SDS011;1994;48.640;8.894;2023-05-17T09:31:06;4.53;;;2.30;;
3959;SDS011;1994;48.640;8.894;2023-05-17T09:33:34;2.43;;;2.23;;
3959;SDS011;1994;48.640;8.894;2023-05-17T09:36:17;3.07;;;2.77;;
3959;SDS011;1994;48.640;8.894;2023-05-17T09:38:56;5.30;;;2.63;;
3959;SDS011;1994;48.640;8.894;2023-05-17T09:41:30;5.70;;;2.33;;
3959;SDS011;1994;48.640;8.894;2023-05-17T09:44:00;3.00;;;2.70;;
3959;SDS011;1994;48.640;8.894;2023-05-17T09:46:27;2.30;;;2.13;;
3959;SDS011;1994;48.640;8.894;2023-05-17T09:49:00;2.30;;;2.10;;
3959;SDS011;1994;48.640;8.894;2023-05-17T09:51:33;2.53;;;2.33;;
3959;SDS011;1994;48.640;8.894;2023-05-17T09:54:01;6.10;;;2.10;;
3959;SDS011;1994;48.640;8.894;2023-05-17T09:56:27;1.93;;;1.80;;
3959;SDS011;1994;48.640;8.894;2023-05-17T09:58:54;3.50;;;2.57;;
3959;SDS011;1994;48.640;8.894;2023-05-17T10:01:24;1.77;;;1.67;;
3959;SDS011;1994;48.640;8.894;2023-05-17T10:03:53;2.27;;;2.10;;
3959;SDS011;1994;48.640;8.894;2023-05-17T10:06:21;2.57;;;2.10;;
3959;SDS011;1994;48.640;8.894;2023-05-17T10:08:51;2.80;;;2.50;;
3959;SDS011;1994;48.640;8.894;2023-05-17T10:11:26;1.80;;;1.70;;
3959;SDS011;1994;48.640;8.894;2023-05-17T10:14:01;2.60;;;2.40;;
3959;SDS011;1994;48.640;8.894;2023-05-17T10:16:37;2.70;;;2.10;;
3959;SDS011;1994;48.640;8.894;2023-05-17T10:19:03;3.60;;;1.93;;
3959;SDS011;1994;48.640;8.894;2023-05-17T10:21:29;9.97;;;4.70;;
3959;SDS011;1994;48.640;8.894;2023-05-17T10:23:59;6.37;;;5.10;;
3959;SDS011;1994;48.640;8.894;2023-05-17T10:26:27;8.37;;;5.53;;
3959;SDS011;1994;48.640;8.894;2023-05-17T10:28:56;5.30;;;2.20;;
3959;SDS011;1994;48.640;8.894;2023-05-17T10:31:25;6.30;;;2.80;;
3959;SDS011;1994;48.640;8.894;2023-05-17T10:34:01;5.40;;;3.00;;
3959;SDS011;1994;48.640;8.894;2023-05-17T10:36:30;3.60;;;2.27;;
3959;SDS011;1994;48.640;8.894;2023-05-17T10:38:57;2.57;;;2.07;;
3959;SDS011;1994;48.640;8.894;2023-05-17T10:41:33;4.13;;;3.30;;
3959;SDS011;1994;48.640;8.894;2023-05-17T10:44:02;2.90;;;2.30;;
3959;SDS011;1994;48.640;8.894;2023-05-17T10:46:31;2.40;;;2.07;;
3959;SDS011;1994;48.640;8.894;2023-05-17T10:48:58;3.30;;;3.00;;
3959;SDS011;1994;48.640;8.894;2023-05-17T10:51:26;2.77;;;2.50;;
3959;SDS011;1994;48.640;8.894;2023-05-17T10:54:10;4.20;;;1.80;;
3959;SDS011;1994;48.640;8.894;2023-05-17T10:56:41;2.53;;;2.27;;
3959;SDS011;1994;48.640;8.894;2023-05-17T11:04:37;4.43;;;2.37;;
3959;SDS011;1994;48.640;8.894;2023-05-17T11:09:43;4.17;;;3.60;;
3959;SDS011;1994;48.640;8.894;2023-05-17T11:12:11;4.23;;;2.17;;
3959;SDS011;1994;48.640;8.894;2023-05-17T11:17:20;3.27;;;2.50;;
3959;SDS011;1994;48.640;8.894;2023-05-17T11:19:55;2.20;;;2.00;;
3959;SDS011;1994;48.640;8.894;2023-05-17T11:22:48;4.47;;;2.60;;
3959;SDS011;1994;48.640;8.894;2023-05-17T11:25:23;2.63;;;2.20;;
3959;SDS011;1994;48.640;8.894;2023-05-17T11:30:42;4.00;;;3.20;;
3959;SDS011;1994;48.640;8.894;2023-05-17T11:33:14;4.90;;;3.20;;
3959;SDS011;1994;48.640;8.894;2023-05-17T11:35:41;4.17;;;2.60;;
3959;SDS011;1994;48.640;8.894;2023-05-17T11:40:51;3.50;;;2.87;;
3959;SDS011;1994;48.640;8.894;2023-05-17T11:43:19;3.30;;;3.00;;
3959;SDS011;1994;48.640;8.894;2023-05-17T11:45:48;5.10;;;2.67;;
3959;SDS011;1994;48.640;8.894;2023-05-17T11:48:15;3.37;;;2.57;;
3959;SDS011;1994;48.640;8.894;2023-05-17T11:50:44;6.10;;;3.83;;
3959;SDS011;1994;48.640;8.894;2023-05-17T11:53:11;5.93;;;5.17;;
3959;SDS011;1994;48.640;8.894;2023-05-17T11:55:39;5.13;;;2.30;;
3959;SDS011;1994;48.640;8.894;2023-05-17T11:58:08;2.80;;;2.60;;
3959;SDS011;1994;48.640;8.894;2023-05-17T12:00:36;6.43;;;2.17;;
3959;SDS011;1994;48.640;8.894;2023-05-17T12:06:08;2.90;;;2.63;;
3959;SDS011;1994;48.640;8.894;2023-05-17T12:08:41;3.37;;;2.87;;
3959;SDS011;1994;48.640;8.894;2023-05-17T12:11:15;3.50;;;2.67;;
3959;SDS011;1994;48.640;8.894;2023-05-17T12:13:42;2.53;;;2.33;;
3959;SDS011;1994;48.640;8.894;2023-05-17T12:16:14;2.40;;;2.20;;
3959;SDS011;1994;48.640;8.894;2023-05-17T12:18:46;2.30;;;2.10;;
3959;SDS011;1994;48.640;8.894;2023-05-17T12:21:15;2.80;;;2.10;;
3959;SDS011;1994;48.640;8.894;2023-05-17T12:23:44;4.47;;;2.63;;
3959;SDS011;1994;48.640;8.894;2023-05-17T12:26:15;5.03;;;2.67;;
3959;SDS011;1994;48.640;8.894;2023-05-17T12:28:58;4.70;;;2.43;;
3959;SDS011;1994;48.640;8.894;2023-05-17T12:34:00;2.80;;;2.37;;
3959;SDS011;1994;48.640;8.894;2023-05-17T12:36:29;9.83;;;2.87;;
3959;SDS011;1994;48.640;8.894;2023-05-17T12:38:57;1.93;;;1.83;;
3959;SDS011;1994;48.640;8.894;2023-05-17T12:41:24;4.97;;;2.20;;
3959;SDS011;1994;48.640;8.894;2023-05-17T12:43:50;3.40;;;2.70;;
3959;SDS011;1994;48.640;8.894;2023-05-17T12:46:17;3.10;;;2.70;;
3959;SDS011;1994;48.640;8.894;2023-05-17T12:48:45;3.67;;;2.80;;
3959;SDS011;1994;48.640;8.894;2023-05-17T12:51:20;9.17;;;2.87;;
3959;SDS011;1994;48.640;8.894;2023-05-17T12:53:51;6.70;;;2.57;;
3959;SDS011;1994;48.640;8.894;2023-05-17T12:56:20;4.40;;;2.83;;
3959;SDS011;1994;48.640;8.894;2023-05-17T12:59:05;7.80;;;3.23;;
3959;SDS011;1994;48.640;8.894;2023-05-17T13:01:42;4.53;;;2.40;;
3959;SDS011;1994;48.640;8.894;2023-05-17T13:04:31;5.53;;;2.70;;
3959;SDS011;1994;48.640;8.894;2023-05-17T13:07:01;2.97;;;2.00;;
3959;SDS011;1994;48.640;8.894;2023-05-17T13:09:29;3.10;;;2.60;;
3959;SDS011;1994;48.640;8.894;2023-05-17T13:11:57;3.43;;;2.10;;
3959;SDS011;1994;48.640;8.894;2023-05-17T13:17:06;3.63;;;3.07;;
3959;SDS011;1994;48.640;8.894;2023-05-17T13:19:37;4.50;;;3.20;;
3959;SDS011;1994;48.640;8.894;2023-05-17T13:22:03;5.47;;;3.10;;
3959;SDS011;1994;48.640;8.894;2023-05-17T13:24:32;5.70;;;4.40;;
3959;SDS011;1994;48.640;8.894;2023-05-17T13:27:00;3.87;;;3.47;;
3959;SDS011;1994;48.640;8.894;2023-05-17T13:29:26;7.47;;;4.77;;
3959;SDS011;1994;48.640;8.894;2023-05-17T13:31:53;4.87;;;3.97;;
3959;SDS011;1994;48.640;8.894;2023-05-17T13:34:19;5.03;;;4.10;;
3959;SDS011;1994;48.640;8.894;2023-05-17T13:36:47;4.10;;;3.63;;
3959;SDS011;1994;48.640;8.894;2023-05-17T13:39:14;5.47;;;4.20;;
3959;SDS011;1994;48.640;8.894;2023-05-17T13:41:40;6.83;;;4.20;;
3959;SDS011;1994;48.640;8.894;2023-05-17T13:44:07;4.20;;;3.70;;
3959;SDS011;1994;48.640;8.894;2023-05-17T13:46:33;5.80;;;4.07;;
3959;SDS011;1994;48.640;8.894;2023-05-17T13:48:59;7.27;;;3.60;;
3959;SDS011;1994;48.640;8.894;2023-05-17T13:51:26;7.07;;;5.93;;
3959;SDS011;1994;48.640;8.894;2023-05-17T13:53:52;6.70;;;3.80;;
3959;SDS011;1994;48.640;8.894;2023-05-17T13:56:18;7.10;;;4.97;;
3959;SDS011;1994;48.640;8.894;2023-05-17T13:58:44;11.43;;;5.57;;
3959;SDS011;1994;48.640;8.894;2023-05-17T14:01:10;3.27;;;2.97;;
3959;SDS011;1994;48.640;8.894;2023-05-17T14:03:35;13.30;;;7.67;;
3959;SDS011;1994;48.640;8.894;2023-05-17T14:06:02;5.60;;;3.20;;
3959;SDS011;1994;48.640;8.894;2023-05-17T14:08:28;4.83;;;2.90;;
3959;SDS011;1994;48.640;8.894;2023-05-17T14:10:54;2.57;;;2.23;;
3959;SDS011;1994;48.640;8.894;2023-05-17T14:13:20;3.03;;;2.40;;
3959;SDS011;1994;48.640;8.894;2023-05-17T14:15:46;6.77;;;3.20;;
3959;SDS011;1994;48.640;8.894;2023-05-17T14:18:12;4.83;;;2.13;;
3959;SDS011;1994;48.640;8.894;2023-05-17T14:20:37;2.87;;;2.60;;
3959;SDS011;1994;48.640;8.894;2023-05-17T14:23:03;3.00;;;2.43;;
3959;SDS011;1994;48.640;8.894;2023-05-17T14:25:29;2.47;;;2.27;;
3959;SDS011;1994;48.640;8.894;2023-05-17T14:27:55;2.67;;;1.90;;
3959;SDS011;1994;48.640;8.894;2023-05-17T14:30:21;5.37;;;2.90;;
3959;SDS011;1994;48.640;8.894;2023-05-17T14:32:47;3.10;;;2.80;;
3959;SDS011;1994;48.640;8.894;2023-05-17T14:35:13;4.40;;;2.30;;
3959;SDS011;1994;48.640;8.894;2023-05-17T14:37:41;3.00;;;2.63;;
3959;SDS011;1994;48.640;8.894;2023-05-17T14:40:07;4.00;;;2.50;;
3959;SDS011;1994;48.640;8.894;2023-05-17T14:42:33;3.60;;;2.77;;
3959;SDS011;1994;48.640;8.894;2023-05-17T14:44:59;4.17;;;2.50;;
3959;SDS011;1994;48.640;8.894;2023-05-17T14:47:25;2.83;;;2.50;;
3959;SDS011;1994;48.640;8.894;2023-05-17T14:49:51;2.03;;;1.93;;
3959;SDS011;1994;48.640;8.894;2023-05-17T14:52:17;2.97;;;2.67;;
3959;SDS011;1994;48.640;8.894;2023-05-17T14:54:43;2.90;;;2.60;;
3959;SDS011;1994;48.640;8.894;2023-05-17T14:57:09;3.30;;;2.30;;
3959;SDS011;1994;48.640;8.894;2023-05-17T14:59:35;2.77;;;2.57;;
3959;SDS011;1994;48.640;8.894;2023-05-17T15:02:02;3.03;;;2.03;;
3959;SDS011;1994;48.640;8.894;2023-05-17T15:04:31;3.60;;;2.20;;
3959;SDS011;1994;48.640;8.894;2023-05-17T15:06:57;2.90;;;2.07;;
3959;SDS011;1994;48.640;8.894;2023-05-17T15:09:22;4.10;;;2.33;;
3959;SDS011;1994;48.640;8.894;2023-05-17T15:11:48;2.03;;;1.93;;
3959;SDS011;1994;48.640;8.894;2023-05-17T15:14:15;2.70;;;2.43;;
3959;SDS011;1994;48.640;8.894;2023-05-17T15:16:45;7.80;;;3.00;;
3959;SDS011;1994;48.640;8.894;2023-05-17T15:19:12;3.87;;;2.40;;
3959;SDS011;1994;48.640;8.894;2023-05-17T15:21:39;4.03;;;2.40;;
3959;SDS011;1994;48.640;8.894;2023-05-17T15:24:06;2.30;;;2.10;;
3959;SDS011;1994;48.640;8.894;2023-05-17T15:26:32;3.40;;;2.50;;
3959;SDS011;1994;48.640;8.894;2023-05-17T15:28:58;2.90;;;2.60;;
3959;SDS011;1994;48.640;8.894;2023-05-17T15:31:24;2.93;;;2.47;;
3959;SDS011;1994;48.640;8.894;2023-05-17T15:33:52;2.60;;;2.27;;
3959;SDS011;1994;48.640;8.894;2023-05-17T15:36:18;3.90;;;2.67;;
3959;SDS011;1994;48.640;8.894;2023-05-17T15:38:44;2.63;;;2.43;;
3959;SDS011;1994;48.640;8.894;2023-05-17T15:41:10;4.40;;;2.40;;
3959;SDS011;1994;48.640;8.894;2023-05-17T15:43:39;6.20;;;2.57;;
3959;SDS011;1994;48.640;8.894;2023-05-17T15:46:05;6.87;;;2.60;;
3959;SDS011;1994;48.640;8.894;2023-05-17T15:48:31;4.70;;;2.80;;